Time;durP1;ratioP1;P1;durP2;ratioP2;P2;SDS_P1;SDS_P2;PMS_P1;PMS_P2;Temp;Humidity;BMP_temperature;BMP_pressure;BME280_temperature;BME280_humidity;BME280_pressure;Samples;Min_cycle;Max_cycle;Signal;HPM_P1;HPM_P2
2023/10/09 00:01:51;;;;;;;1.35;0.80;;;;;;;7.57;91.60;96847.66;4983060;28;20161;-75
2023/10/09 00:04:17;;;;;;;1.08;0.80;;;;;;;7.57;91.68;96836.25;4982429;28;20081;-75
2023/10/09 00:06:46;;;;;;;0.60;0.60;;;;;;;7.53;91.35;96853.53;4983327;28;20140;-77
2023/10/09 00:09:17;;;;;;;0.60;0.60;;;;;;;7.48;91.12;96845.44;5013882;28;20072;-77
2023/10/09 00:11:44;;;;;;;;;;;;;;;7.72;91.80;96848.22;4998435;28;20061;-77
2023/10/09 00:14:11;;;;;;;0.60;0.60;;;;;;;7.51;91.54;96852.94;4998532;28;19924;-76
2023/10/09 00:16:43;;;;;;;0.60;0.60;;;;;;;7.50;91.76;96859.25;5014989;28;20124;-76
2023/10/09 00:19:54;;;;;;;0.70;0.70;;;;;;;7.52;91.74;96873.06;4998681;28;21093;-76
2023/10/09 00:22:25;;;;;;;0.70;0.70;;;;;;;7.50;91.57;96875.91;5010822;28;20053;-77
2023/10/09 00:25:10;;;;;;;1.00;0.60;;;;;;;7.55;91.50;96894.56;5013206;28;20061;-77
2023/10/09 00:27:48;;;;;;;0.70;0.70;;;;;;;7.53;91.30;96874.69;4981561;28;20106;-76
2023/10/09 00:30:21;;;;;;;0.75;0.60;;;;;;;7.57;91.37;96875.88;4998424;28;20061;-76
2023/10/09 00:32:58;;;;;;;0.65;0.65;;;;;;;7.43;91.35;96884.81;4999448;28;20163;-76
2023/10/09 00:40:50;;;;;;;0.70;0.70;;;;;;;7.42;91.75;96904.34;5011660;28;20083;-74
2023/10/09 00:43:19;;;;;;;0.60;0.60;;;;;;;7.40;91.54;96906.34;5017502;28;20042;-75
2023/10/09 00:45:46;;;;;;;0.73;0.73;;;;;;;7.46;91.69;96910.81;4998985;28;20045;-74
2023/10/09 00:48:29;;;;;;;0.60;0.60;;;;;;;7.40;91.85;96916.91;4998759;28;20336;-75
2023/10/09 00:51:00;;;;;;;0.70;0.70;;;;;;;7.40;91.70;96915.09;4998807;28;20069;-76
2023/10/09 00:53:33;;;;;;;0.75;0.70;;;;;;;7.45;92.18;96925.03;5018490;28;20044;-75
2023/10/09 00:56:18;;;;;;;0.80;0.80;;;;;;;7.42;92.29;96930.72;5034926;28;20447;-76
2023/10/09 00:58:48;;;;;;;0.60;0.60;;;;;;;7.45;92.47;96941.72;5019943;28;20049;-75
2023/10/09 01:01:16;;;;;;;0.80;0.80;;;;;;;7.42;92.28;96936.84;5000986;28;20075;-74
2023/10/09 01:03:44;;;;;;;0.73;0.73;;;;;;;7.42;92.39;96936.00;5000590;28;20079;-74
2023/10/09 01:11:18;;;;;;;0.70;0.70;;;;;;;7.62;93.04;96945.56;5033215;28;20148;-74
2023/10/09 01:16:16;;;;;;;2.13;0.90;;;;;;;7.49;92.61;96953.47;5001142;28;20316;-74
2023/10/09 01:18:49;;;;;;;0.80;0.80;;;;;;;7.59;92.82;96947.78;5017832;28;21015;-75
2023/10/09 01:21:23;;;;;;;1.27;1.00;;;;;;;7.63;92.64;96959.56;5017518;28;20049;-73
2023/10/09 01:24:08;;;;;;;0.95;0.80;;;;;;;7.48;92.46;96967.69;5017963;28;20483;-75
2023/10/09 01:26:44;;;;;;;0.85;0.80;;;;;;;7.61;92.63;96970.31;5019808;28;20056;-74
2023/10/09 01:29:16;;;;;;;0.80;0.80;;;;;;;7.55;92.71;96973.00;5017630;28;20048;-75
2023/10/09 01:31:56;;;;;;;0.82;0.82;;;;;;;7.58;92.58;96978.66;5017840;28;20057;-74
2023/10/09 01:34:41;;;;;;;0.70;0.70;;;;;;;7.50;92.72;96980.69;5018682;28;20045;-74
2023/10/09 01:37:17;;;;;;;0.70;0.70;;;;;;;7.53;92.63;96990.84;5019765;28;20115;-79
2023/10/09 01:39:48;;;;;;;0.80;0.80;;;;;;;7.51;92.60;96992.88;5019100;28;20053;-75
2023/10/09 01:42:27;;;;;;;0.80;0.80;;;;;;;7.48;92.51;97003.84;5001546;28;20095;-75
2023/10/09 01:44:53;;;;;;;0.70;0.70;;;;;;;7.47;92.40;97013.63;5002331;28;20033;-76
2023/10/09 01:47:21;;;;;;;1.25;0.80;;;;;;;7.48;92.23;97009.94;5017250;28;20155;-74
2023/10/09 01:49:53;;;;;;;0.80;0.80;;;;;;;7.53;92.46;97019.91;5017513;28;20048;-74
2023/10/09 01:52:20;;;;;;;0.80;0.80;;;;;;;7.52;92.27;97018.28;5050846;28;20067;-73
2023/10/09 01:54:50;;;;;;;0.77;0.77;;;;;;;7.55;92.49;97031.09;5016642;28;20069;-73
2023/10/09 01:57:25;;;;;;;0.80;0.80;;;;;;;7.48;92.93;97027.63;5016861;28;20487;-74
2023/10/09 01:59:54;;;;;;;0.90;0.90;;;;;;;7.49;93.07;97026.63;5050088;28;20413;-73
2023/10/09 02:02:44;;;;;;;1.27;0.90;;;;;;;7.42;93.17;97045.09;5018915;28;20057;-74
2023/10/09 02:07:44;;;;;;;0.90;0.90;;;;;;;7.52;94.23;97048.13;5016796;28;20321;-75
2023/10/09 02:10:32;;;;;;;0.90;0.90;;;;;;;7.59;94.36;97056.06;5050374;28;20049;-74
2023/10/09 02:13:11;;;;;;;1.00;1.00;;;;;;;7.62;94.34;97050.38;5020812;28;20068;-74
2023/10/09 02:15:51;;;;;;;0.88;0.88;;;;;;;7.53;94.00;97070.06;5021860;28;20977;-74
2023/10/09 02:27:06;;;;;;;0.98;0.98;;;;;;;7.60;93.94;97078.81;5037471;28;20037;-74
2023/10/09 02:29:04;;;;;;;0.90;0.90;;;;;;;7.56;94.26;97074.94;5017522;28;20072;-75
2023/10/09 02:31:40;;;;;;;1.10;0.80;;;;;;;7.65;94.24;97084.31;5020207;28;20128;-75
2023/10/09 02:34:10;;;;;;;0.90;0.90;;;;;;;7.66;94.12;97081.47;5020984;28;20046;-75
2023/10/09 02:36:43;;;;;;;0.80;0.80;;;;;;;7.65;93.78;97086.94;5020184;28;20049;-77
2023/10/09 02:42:08;;;;;;;0.70;0.70;;;;;;;7.70;93.55;97100.38;5017215;28;20049;-76
2023/10/09 02:44:40;;;;;;;1.05;0.95;;;;;;;7.69;93.38;97104.84;4985315;28;20460;-75
2023/10/09 02:47:12;;;;;;;0.85;0.75;;;;;;;7.66;93.45;97104.41;4982431;28;21151;-75
2023/10/09 02:49:39;;;;;;;0.82;0.82;;;;;;;7.73;93.61;97121.09;4983253;28;20046;-75
2023/10/09 02:52:07;;;;;;;0.70;0.70;;;;;;;7.72;93.42;97128.19;4982716;28;20050;-75
2023/10/09 02:54:41;;;;;;;1.23;0.82;;;;;;;7.72;93.29;97124.78;4998859;28;20140;-75
2023/10/09 02:57:08;;;;;;;1.10;0.90;;;;;;;7.74;93.06;97131.47;5016138;28;20056;-75
2023/10/09 02:59:44;;;;;;;0.60;0.60;;;;;;;7.74;92.79;97128.81;4982583;28;20474;-74
2023/10/09 03:02:11;;;;;;;0.80;0.80;;;;;;;7.73;92.85;97139.59;4999282;28;20470;-75
2023/10/09 03:04:38;;;;;;;0.85;0.70;;;;;;;7.79;92.75;97141.44;4998208;28;20057;-75
2023/10/09 03:07:05;;;;;;;0.70;0.70;;;;;;;7.69;92.82;97146.28;4982588;28;20060;-75
2023/10/09 03:09:32;;;;;;;0.88;0.70;;;;;;;7.80;92.47;97145.69;4966988;28;20055;-75
2023/10/09 03:12:02;;;;;;;0.70;0.70;;;;;;;7.87;92.38;97151.81;5002547;28;20081;-75
2023/10/09 03:14:35;;;;;;;1.05;1.02;;;;;;;7.87;91.90;97165.03;5018786;28;20126;-75
2023/10/09 03:17:02;;;;;;;0.75;0.75;;;;;;;7.84;91.82;97168.06;5018425;28;20049;-76
2023/10/09 03:19:29;;;;;;;1.48;0.98;;;;;;;7.88;91.67;97169.28;5018525;28;20156;-76
2023/10/09 03:21:58;;;;;;;1.83;0.90;;;;;;;7.83;91.46;97177.00;5034442;28;20041;-77
2023/10/09 03:24:27;;;;;;;0.70;0.70;;;;;;;7.88;91.54;97180.66;5018252;28;20052;-75
2023/10/09 03:26:55;;;;;;;0.80;0.80;;;;;;;7.77;91.72;97183.06;5035398;28;20084;-76
2023/10/09 03:29:23;;;;;;;0.77;0.77;;;;;;;7.84;91.36;97186.56;5016468;28;20041;-77
2023/10/09 03:31:50;;;;;;;0.90;0.90;;;;;;;7.71;91.04;97192.63;5038902;28;20052;-74
2023/10/09 03:34:18;;;;;;;1.02;0.90;;;;;;;7.81;90.99;97203.59;5011846;28;20143;-76
2023/10/09 03:36:47;;;;;;;0.70;0.70;;;;;;;7.93;91.36;97194.06;4981857;28;20487;-73
2023/10/09 03:39:48;;;;;;;0.80;0.80;;;;;;;7.84;91.16;97207.69;5032919;28;20045;-77
2023/10/09 03:42:11;;;;;;;1.13;1.02;;;;;;;7.91;90.33;97208.50;5010422;28;20056;-74
2023/10/09 03:44:42;;;;;;;0.80;0.80;;;;;;;8.03;90.37;97212.19;5007798;28;20052;-74
2023/10/09 03:47:11;;;;;;;0.98;0.88;;;;;;;7.95;90.00;97207.91;5042105;28;20052;-74
2023/10/09 03:49:39;;;;;;;0.95;0.85;;;;;;;7.99;89.38;97219.72;5041527;28;20491;-70
2023/10/09 03:52:09;;;;;;;0.65;0.65;;;;;;;8.02;89.69;97218.50;5042313;28;20053;-72
2023/10/09 03:54:35;;;;;;;0.70;0.70;;;;;;;8.04;89.41;97225.19;5022387;28;20049;-72
2023/10/09 03:57:02;;;;;;;2.25;1.30;;;;;;;8.09;89.24;97227.25;5032977;28;20098;-71
2023/10/09 03:59:32;;;;;;;1.20;1.10;;;;;;;8.07;89.29;97238.03;5025150;28;20043;-72
2023/10/09 04:01:58;;;;;;;1.35;0.98;;;;;;;8.09;88.96;97238.63;5040007;28;20435;-73
2023/10/09 04:04:25;;;;;;;0.90;0.90;;;;;;;8.12;88.67;97235.59;5015859;28;20049;-82
2023/10/09 04:06:53;;;;;;;0.90;0.90;;;;;;;8.00;88.37;97242.50;5033637;28;20156;-80
2023/10/09 04:14:36;;;;;;;2.50;1.13;;;;;;;8.10;88.57;97252.69;5051324;28;20044;-72
2023/10/09 04:17:08;;;;;;;1.48;1.10;;;;;;;8.10;88.82;97252.69;5052247;28;20105;-69
2023/10/09 04:19:47;;;;;;;1.45;0.90;;;;;;;8.08;88.29;97260.81;5050997;28;20050;-72
2023/10/09 04:22:27;;;;;;;0.80;0.80;;;;;;;8.18;88.11;97266.50;5050334;28;20494;-72
2023/10/09 04:24:53;;;;;;;0.80;0.80;;;;;;;8.14;87.98;97264.47;5027593;28;20045;-74
2023/10/09 04:27:26;;;;;;;2.05;0.93;;;;;;;8.31;87.71;97286.91;4996459;28;20090;-73
2023/10/09 04:29:54;;;;;;;0.70;0.70;;;;;;;8.32;87.12;97289.34;5029331;28;20060;-72
2023/10/09 04:32:24;;;;;;;1.95;0.93;;;;;;;8.13;87.94;97290.09;5013845;28;20110;-73
2023/10/09 04:37:38;;;;;;;1.33;0.90;;;;;;;8.01;88.38;97294.31;4998286;28;20077;-73
2023/10/09 04:41:05;;;;;;;2.75;0.82;;;;;;;8.10;89.25;97301.06;5031335;28;20188;-73
2023/10/09 04:43:05;;;;;;;1.30;0.80;;;;;;;8.13;89.20;97299.88;5017669;28;20112;-73
2023/10/09 04:48:32;;;;;;;0.88;0.80;;;;;;;8.01;89.20;97306.75;5031287;28;20083;-73
2023/10/09 04:53:50;;;;;;;1.98;0.90;;;;;;;8.21;89.64;97313.69;5031457;28;20045;-73
2023/10/09 04:56:16;;;;;;;1.20;0.90;;;;;;;8.23;89.40;97308.25;4982799;28;20041;-74
2023/10/09 04:58:44;;;;;;;1.50;0.90;;;;;;;8.24;88.89;97323.91;4981480;28;20103;-72
2023/10/09 05:01:14;;;;;;;2.28;1.55;;;;;;;8.25;88.99;97330.84;5030286;28;20552;-73
2023/10/09 05:06:32;;;;;;;4.07;1.80;;;;;;;8.17;88.67;97338.91;5030254;28;20196;-72
2023/10/09 05:09:07;;;;;;;1.50;1.20;;;;;;;8.43;87.68;97340.84;5000948;28;20129;-73
2023/10/09 05:11:52;;;;;;;0.80;0.80;;;;;;;8.50;87.26;97349.63;5030651;28;20156;-73
2023/10/09 05:14:38;;;;;;;1.17;0.98;;;;;;;8.49;87.07;97356.72;5016451;28;20050;-72
2023/10/09 05:17:09;;;;;;;1.63;0.73;;;;;;;8.55;86.98;97355.94;5030696;28;20073;-73
2023/10/09 05:22:38;;;;;;;1.30;0.73;;;;;;;8.52;86.56;97356.31;5031053;28;20061;-73
2023/10/09 05:25:16;;;;;;;0.80;0.70;;;;;;;8.54;86.56;97362.25;5030051;28;20047;-72
2023/10/09 05:27:50;;;;;;;0.88;0.80;;;;;;;8.56;86.39;97378.69;5030034;28;20442;-73
2023/10/09 05:30:25;;;;;;;0.73;0.73;;;;;;;8.56;86.15;97362.03;5031018;28;20037;-73
2023/10/09 05:32:58;;;;;;;0.98;0.70;;;;;;;8.72;86.27;97382.00;5014609;28;20057;-73
2023/10/09 05:35:39;;;;;;;0.60;0.60;;;;;;;8.63;86.04;97380.53;4997892;28;20042;-73
2023/10/09 05:38:23;;;;;;;2.70;0.80;;;;;;;8.75;86.37;97387.69;5030286;28;20077;-73
2023/10/09 05:40:53;;;;;;;3.88;0.90;;;;;;;8.76;86.57;97394.66;5030353;28;20418;-73
2023/10/09 05:46:09;;;;;;;1.42;1.02;;;;;;;8.70;85.54;97392.81;5013591;28;20037;-74
2023/10/09 05:49:08;;;;;;;1.60;0.90;;;;;;;8.66;84.68;97396.84;5031000;28;20499;-74
2023/10/09 05:51:44;;;;;;;1.13;0.90;;;;;;;8.79;84.79;97401.34;5017102;28;20077;-73
2023/10/09 05:57:51;;;;;;;2.60;0.75;;;;;;;8.96;84.06;97406.06;5019470;28;20079;-73
2023/10/09 06:08:06;;;;;;;1.10;0.70;;;;;;;8.86;83.21;97434.75;5033775;28;20140;-73
2023/10/09 06:10:40;;;;;;;1.35;0.85;;;;;;;8.92;83.34;97444.53;5033492;28;20041;-73
2023/10/09 06:13:07;;;;;;;1.17;0.65;;;;;;;9.02;83.48;97444.16;5033817;28;20052;-75
2023/10/09 06:18:32;;;;;;;0.95;0.85;;;;;;;9.04;83.14;97442.13;5034293;28;20407;-72
2023/10/09 06:21:08;;;;;;;0.80;0.80;;;;;;;8.97;82.86;97450.06;5034054;28;20038;-72
2023/10/09 06:26:24;;;;;;;2.63;0.93;;;;;;;8.90;83.07;97451.06;5019023;28;20034;-73
2023/10/09 06:29:14;;;;;;;1.05;0.90;;;;;;;8.99;83.45;97460.44;5034061;28;20049;-73
2023/10/09 06:31:57;;;;;;;0.80;0.80;;;;;;;8.99;82.93;97458.63;5033307;28;20084;-73
2023/10/09 06:34:32;;;;;;;3.42;0.85;;;;;;;8.94;82.45;97471.63;5019599;28;20530;-72
2023/10/09 06:37:05;;;;;;;0.93;0.90;;;;;;;9.03;82.59;97477.53;5017553;28;20045;-73
2023/10/09 06:45:08;;;;;;;1.55;0.98;;;;;;;9.19;82.69;97498.34;5032896;28;20080;-73
2023/10/09 06:47:41;;;;;;;0.60;0.60;;;;;;;9.13;81.89;97500.00;5033601;28;20088;-72
2023/10/09 06:50:24;;;;;;;0.80;0.80;;;;;;;9.22;81.58;97501.44;5001497;28;20115;-74
2023/10/09 06:55:48;;;;;;;1.58;0.90;;;;;;;9.12;81.89;97511.56;5018350;28;20526;-71
2023/10/09 06:58:27;;;;;;;2.33;0.90;;;;;;;9.23;81.67;97524.22;5015588;28;21030;-72
2023/10/09 07:01:19;;;;;;;1.02;0.80;;;;;;;9.26;81.84;97517.72;5016375;28;20476;-72
2023/10/09 07:03:52;;;;;;;0.82;0.80;;;;;;;9.36;81.78;97526.91;5018451;28;20053;-72
2023/10/09 07:15:01;;;;;;;0.77;0.77;;;;;;;9.81;80.58;97541.22;5032849;28;20041;-72
2023/10/09 07:25:13;;;;;;;1.27;0.75;;;;;;;10.27;78.43;97563.25;5031790;28;20045;-72
2023/10/09 07:27:45;;;;;;;6.93;2.40;;;;;;;10.32;77.74;97565.28;5032950;28;20041;-71
2023/10/09 07:31:23;;;;;;;1.23;1.13;;;;;;;10.33;76.81;97567.75;5033023;28;20460;-70
2023/10/09 07:38:19;;;;;;;8.77;1.73;;;;;;;10.31;75.84;97590.16;5032838;28;20046;-70
2023/10/09 07:40:56;;;;;;;2.90;2.03;;;;;;;10.29;76.29;97593.03;5031939;28;20041;-72
2023/10/09 07:43:39;;;;;;;0.98;0.80;;;;;;;10.29;76.10;97595.69;5033422;28;20227;-72
2023/10/09 07:48:54;;;;;;;0.70;0.70;;;;;;;10.11;76.13;97604.28;5033201;28;20095;-72
2023/10/09 07:51:30;;;;;;;1.33;1.05;;;;;;;10.06;76.31;97613.81;5031987;28;20128;-72
2023/10/09 07:54:06;;;;;;;5.57;0.90;;;;;;;9.99;75.75;97613.81;5032274;28;20088;-70
2023/10/09 07:56:43;;;;;;;1.90;0.77;;;;;;;9.98;76.15;97612.19;5031502;28;20041;-72
2023/10/09 07:59:12;;;;;;;0.88;0.77;;;;;;;10.01;76.23;97625.03;5032585;28;20045;-72
2023/10/09 08:01:52;;;;;;;2.47;0.70;;;;;;;10.18;76.20;97620.16;5032290;28;20128;-72
2023/10/09 08:05:06;;;;;;;;;;;;;;;10.39;75.85;97627.09;5016852;28;20091;-72
2023/10/09 08:07:19;;;;;;;1.27;0.98;;;;;;;10.35;76.35;97634.66;5024480;28;19921;-73
2023/10/09 08:10:43;;;;;;;3.38;1.10;;;;;;;10.20;76.08;97642.84;5032239;28;20033;-72
2023/10/09 08:17:59;;;;;;;2.58;1.20;;;;;;;10.20;77.68;97636.72;5032071;28;20041;-73
2023/10/09 08:20:26;;;;;;;1.42;0.93;;;;;;;10.02;77.18;97647.88;5031555;28;20383;-73
2023/10/09 08:22:56;;;;;;;1.00;0.90;;;;;;;9.89;77.28;97649.69;5030684;28;20048;-72
2023/10/09 08:25:32;;;;;;;1.55;1.05;;;;;;;9.90;77.07;97652.16;5014663;28;20131;-73
2023/10/09 08:30:48;;;;;;;2.10;1.00;;;;;;;10.09;77.56;97655.88;5031973;28;20136;-72
2023/10/09 08:36:04;;;;;;;1.67;0.90;;;;;;;10.33;76.43;97673.03;5014575;28;20109;-79
2023/10/09 08:38:33;;;;;;;2.53;0.88;;;;;;;10.22;75.22;97671.81;4999883;28;20045;-78
2023/10/09 08:41:17;;;;;;;3.50;1.00;;;;;;;10.49;74.99;97681.41;4999744;28;20072;-79
2023/10/09 08:43:52;;;;;;;0.70;0.70;;;;;;;10.54;74.41;97686.09;5031851;28;20510;-81
2023/10/09 08:46:30;;;;;;;4.70;1.40;;;;;;;10.60;74.07;97693.22;4982341;28;20051;-78
2023/10/09 08:49:00;;;;;;;1.95;0.90;;;;;;;10.46;73.85;97689.75;5015081;28;20049;-80
2023/10/09 08:51:29;;;;;;;1.58;0.73;;;;;;;10.59;73.89;97681.00;5011651;28;20125;-80
2023/10/09 08:53:55;;;;;;;2.08;0.80;;;;;;;10.61;73.15;97687.72;4996753;28;20081;-80
2023/10/09 08:56:22;;;;;;;2.33;0.85;;;;;;;10.69;72.76;97692.81;4976240;28;20071;-81
2023/10/09 08:58:59;;;;;;;1.65;0.73;;;;;;;10.85;72.83;97692.41;4960002;28;20183;-81
2023/10/09 09:01:25;;;;;;;1.20;0.88;;;;;;;10.81;73.00;97699.13;4993496;28;20057;-80
2023/10/09 09:03:57;;;;;;;3.13;0.80;;;;;;;10.99;72.64;97701.16;4961430;28;20105;-81
2023/10/09 09:06:23;;;;;;;1.13;0.70;;;;;;;11.04;71.91;97706.66;4962136;28;20046;-81
2023/10/09 09:08:54;;;;;;;1.85;0.77;;;;;;;11.19;71.11;97709.91;5009964;28;20120;-80
2023/10/09 09:11:24;;;;;;;;;;;;;;;11.53;70.58;97710.38;4995057;28;20140;-80
2023/10/09 09:14:02;;;;;;;0.70;0.70;;;;;;;11.55;70.20;97712.81;4977885;28;20248;-81
2023/10/09 09:16:34;;;;;;;1.23;0.70;;;;;;;11.61;70.09;97710.16;4977429;28;20508;-80
2023/10/09 09:21:41;;;;;;;1.02;0.70;;;;;;;11.88;69.16;97718.84;4994291;28;20049;-81
2023/10/09 09:26:58;;;;;;;1.42;0.98;;;;;;;11.85;68.23;97722.75;5005506;28;20506;-82
2023/10/09 09:29:40;;;;;;;1.60;0.88;;;;;;;11.85;67.94;97727.25;5020059;28;20483;-82
2023/10/09 09:32:20;;;;;;;1.30;1.00;;;;;;;11.78;68.94;97729.94;4986103;28;20077;-81
2023/10/09 09:34:54;;;;;;;0.98;0.88;;;;;;;11.85;69.60;97725.41;5005282;28;20052;-81
2023/10/09 09:37:21;;;;;;;0.93;0.63;;;;;;;12.04;68.78;97728.97;4990996;28;20399;-80
2023/10/09 09:39:50;;;;;;;3.72;0.80;;;;;;;11.79;68.03;97730.78;5038608;28;20048;-81
2023/10/09 09:42:24;;;;;;;2.92;0.80;;;;;;;11.79;68.42;97726.25;5021520;28;20053;-82
2023/10/09 09:44:52;;;;;;;0.73;0.70;;;;;;;11.75;68.40;97729.53;5019496;28;20106;-80
2023/10/09 09:47:27;;;;;;;1.10;0.68;;;;;;;11.55;68.57;97728.78;5002338;28;20041;-81
2023/10/09 09:50:11;;;;;;;0.70;0.70;;;;;;;11.63;68.60;97739.22;5001953;28;20038;-82
2023/10/09 09:52:38;;;;;;;1.55;0.85;;;;;;;11.60;68.79;97750.25;5020146;28;20415;-81
2023/10/09 09:55:22;;;;;;;2.05;0.70;;;;;;;11.77;68.87;97746.13;4985231;28;20041;-81
2023/10/09 09:57:52;;;;;;;0.50;0.50;;;;;;;11.70;68.66;97755.97;5003071;28;20041;-80
2023/10/09 10:00:42;;;;;;;2.15;0.80;;;;;;;11.84;67.94;97753.03;5018236;28;20499;-79
2023/10/09 10:03:13;;;;;;;1.70;0.90;;;;;;;11.77;67.43;97749.59;5019520;28;20144;-81
2023/10/09 10:05:42;;;;;;;1.58;0.70;;;;;;;11.59;67.25;97759.25;4984612;28;20122;-80
2023/10/09 10:08:12;;;;;;;1.35;0.85;;;;;;;11.54;67.92;97753.75;5034161;28;20111;-81
2023/10/09 10:13:56;;;;;;;1.20;0.85;;;;;;;11.76;68.88;97757.78;5016934;28;20045;-80
2023/10/09 10:16:22;;;;;;;1.45;0.80;;;;;;;11.48;68.74;97779.31;5017213;28;20061;-80
2023/10/09 10:19:40;;;;;;;0.88;0.70;;;;;;;11.51;68.66;97773.59;5001059;28;20570;-80
2023/10/09 10:21:42;;;;;;;0.98;0.75;;;;;;;11.25;68.81;97778.16;5006669;28;20087;-81
2023/10/09 10:24:52;;;;;;;1.13;0.70;;;;;;;11.50;70.17;97777.25;5001038;28;20037;-80
2023/10/09 10:27:26;;;;;;;2.63;0.60;;;;;;;11.23;69.38;97773.03;4959819;28;20371;-81
2023/10/09 10:30:11;;;;;;;0.52;0.52;;;;;;;11.38;70.03;97783.41;4926183;28;20066;-79
2023/10/09 10:32:51;;;;;;;1.92;0.70;;;;;;;11.50;70.01;97790.56;4957912;28;20054;-81
2023/10/09 10:35:32;;;;;;;;;;;;;;;11.63;70.17;97781.75;4940953;28;20095;-80
2023/10/09 10:38:11;;;;;;;0.85;0.70;;;;;;;11.59;70.80;97791.16;4925564;28;19926;-80
2023/10/09 10:40:46;;;;;;;2.80;0.70;;;;;;;11.43;70.72;97784.44;4941685;28;20043;-80
2023/10/09 10:43:31;;;;;;;0.63;0.63;;;;;;;11.48;70.05;97791.78;4958862;28;20068;-79
2023/10/09 10:46:05;;;;;;;1.02;0.60;;;;;;;11.45;70.13;97806.31;5001954;28;20045;-80
2023/10/09 10:48:37;;;;;;;1.52;0.70;;;;;;;11.27;70.63;97805.34;4983357;28;20147;-80
2023/10/09 10:51:04;;;;;;;1.33;0.77;;;;;;;11.11;70.88;97795.94;4983656;28;20045;-80
2023/10/09 10:53:47;;;;;;;0.60;0.60;;;;;;;10.94;70.66;97809.84;4983092;28;20528;-81
2023/10/09 11:01:25;;;;;;;0.70;0.70;;;;;;;10.87;69.91;97817.81;4985337;28;20137;-79
2023/10/09 11:06:37;;;;;;;0.60;0.60;;;;;;;11.30;69.34;97820.88;4967788;28;20249;-79
2023/10/09 11:09:23;;;;;;;1.15;0.60;;;;;;;11.17;68.27;97828.84;4967556;28;20057;-80
2023/10/09 11:11:55;;;;;;;1.30;0.70;;;;;;;11.11;67.94;97821.69;4985636;28;20144;-80
2023/10/09 11:14:24;;;;;;;0.75;0.68;;;;;;;11.06;68.18;97840.06;4992031;28;20209;-79
2023/10/09 11:16:51;;;;;;;0.80;0.80;;;;;;;11.02;68.02;97836.19;4984093;28;20144;-80
2023/10/09 11:24:34;;;;;;;1.02;0.70;;;;;;;11.07;67.80;97844.38;5017475;28;20356;-80
2023/10/09 11:27:05;;;;;;;2.53;0.65;;;;;;;11.12;67.46;97845.38;5000192;28;20064;-80
2023/10/09 11:32:25;;;;;;;0.60;0.60;;;;;;;11.20;66.05;97847.84;5032352;28;20195;-79
2023/10/09 11:35:09;;;;;;;0.70;0.70;;;;;;;11.13;66.02;97851.53;4999276;28;20368;-81
2023/10/09 11:37:42;;;;;;;0.70;0.70;;;;;;;10.92;65.51;97855.19;4983006;28;20042;-81
2023/10/09 11:40:30;;;;;;;2.65;0.70;;;;;;;11.09;66.25;97861.75;5000260;28;20325;-81
2023/10/09 11:43:00;;;;;;;2.33;0.80;;;;;;;10.98;66.85;97877.47;5032039;28;20534;-77
2023/10/09 11:45:31;;;;;;;0.70;0.60;;;;;;;10.82;68.54;97883.16;5016220;28;20102;-82
2023/10/09 11:48:33;;;;;;;0.40;0.40;;;;;;;10.91;69.49;97877.47;4985909;28;20064;-77
2023/10/09 11:55:54;;;;;;;1.55;1.05;;;;;;;10.33;72.52;97885.28;5049820;28;20102;-68
2023/10/09 11:58:24;;;;;;;0.63;0.63;;;;;;;10.38;73.98;97888.16;5016857;28;20057;-70
2023/10/09 12:00:56;;;;;;;2.05;0.60;;;;;;;10.41;73.89;97877.97;5006817;28;20122;-69
2023/10/09 12:03:30;;;;;;;0.63;0.63;;;;;;;10.55;74.83;97878.84;4999509;28;20061;-69
2023/10/09 12:05:57;;;;;;;0.95;0.70;;;;;;;10.51;75.09;97886.38;4998817;28;20045;-69
2023/10/09 12:08:26;;;;;;;1.13;0.77;;;;;;;10.58;76.01;97895.16;5017326;28;20491;-68
2023/10/09 12:10:55;;;;;;;1.88;1.00;;;;;;;10.69;77.98;97899.06;5033932;28;20178;-67
2023/10/09 12:13:23;;;;;;;0.70;0.70;;;;;;;10.63;77.09;97899.88;5033400;28;20122;-67
2023/10/09 12:15:53;;;;;;;2.70;0.70;;;;;;;10.60;76.35;97900.28;5017094;28;20037;-68
2023/10/09 12:18:21;;;;;;;0.52;0.52;;;;;;;10.65;76.40;97905.81;5019219;28;20614;-67
2023/10/09 12:20:51;;;;;;;1.30;1.17;;;;;;;10.69;76.03;97907.84;5035218;28;20388;-68
2023/10/09 12:23:19;;;;;;;1.40;0.80;;;;;;;10.77;75.83;97898.88;5031158;28;20060;-68
2023/10/09 12:25:45;;;;;;;1.05;0.70;;;;;;;10.69;74.33;97917.66;4990163;28;20064;-67
2023/10/09 12:28:14;;;;;;;1.27;0.80;;;;;;;10.67;73.10;97923.16;4996461;28;20045;-67
2023/10/09 12:30:41;;;;;;;1.20;0.80;;;;;;;10.62;72.89;97932.75;5013186;28;20072;-67
2023/10/09 12:33:09;;;;;;;1.02;0.80;;;;;;;10.63;73.79;97934.38;4988301;28;20048;-68
2023/10/09 12:35:39;;;;;;;0.90;0.90;;;;;;;10.62;75.33;97938.06;4996415;28;20495;-68
2023/10/09 12:38:09;;;;;;;1.45;0.85;;;;;;;10.42;76.29;97932.69;5012631;28;20053;-67
2023/10/09 12:40:50;;;;;;;3.08;0.90;;;;;;;10.47;77.85;97937.41;4998214;28;20056;-68
2023/10/09 12:43:19;;;;;;;2.00;1.10;;;;;;;10.47;78.28;97945.34;4967823;28;20482;-68
2023/10/09 12:45:46;;;;;;;1.70;1.20;;;;;;;10.34;79.11;97947.94;5014875;28;20056;-67
2023/10/09 12:48:14;;;;;;;2.28;1.17;;;;;;;10.27;79.17;97952.41;5016343;28;20380;-67
2023/10/09 12:50:47;;;;;;;1.33;1.00;;;;;;;10.30;79.90;97960.81;5013152;28;20145;-67
2023/10/09 12:53:17;;;;;;;1.55;0.93;;;;;;;10.24;79.49;97957.09;4998626;28;20518;-67
2023/10/09 12:55:44;;;;;;;6.57;1.23;;;;;;;10.33;79.89;97967.53;5033913;28;20155;-69
2023/10/09 12:58:14;;;;;;;5.53;1.75;;;;;;;10.42;79.54;97961.88;5032774;28;20064;-68
2023/10/09 13:00:44;;;;;;;4.30;0.90;;;;;;;10.42;80.09;97967.19;5050037;28;20051;-68
2023/10/09 13:03:17;;;;;;;2.78;1.25;;;;;;;10.53;80.18;97971.94;5017286;28;20053;-67
2023/10/09 13:05:52;;;;;;;2.42;1.23;;;;;;;10.60;80.26;97972.75;5034157;28;20040;-67
2023/10/09 13:08:34;;;;;;;1.95;1.35;;;;;;;10.54;79.82;97978.03;5033228;28;20053;-67
2023/10/09 13:11:11;;;;;;;1.70;1.00;;;;;;;10.46;79.88;97976.38;5046043;28;20083;-68
2023/10/09 13:13:46;;;;;;;1.50;1.10;;;;;;;10.51;80.11;97970.47;5017501;28;20123;-67
2023/10/09 13:16:23;;;;;;;4.00;0.93;;;;;;;10.36;79.85;97988.38;5050621;28;20067;-69
2023/10/09 13:18:54;;;;;;;5.25;2.25;;;;;;;10.36;79.96;97996.34;5049773;28;20080;-67
2023/10/09 13:21:31;;;;;;;6.15;1.48;;;;;;;10.38;80.01;97991.66;5033203;28;20060;-68
2023/10/09 13:24:00;;;;;;;2.85;1.10;;;;;;;10.25;79.50;97995.06;5018741;28;20041;-67
2023/10/09 13:26:29;;;;;;;4.03;1.30;;;;;;;10.19;79.16;97999.28;5050381;28;20156;-67
2023/10/09 13:28:56;;;;;;;3.05;1.52;;;;;;;10.29;79.30;97995.50;5033959;28;20102;-67
2023/10/09 13:31:46;;;;;;;5.45;1.30;;;;;;;10.18;79.32;98002.97;5019528;28;20037;-66
2023/10/09 13:34:16;;;;;;;2.85;1.40;;;;;;;10.26;79.83;98004.66;5050638;28;20380;-68
2023/10/09 13:36:52;;;;;;;3.83;1.00;;;;;;;10.10;79.07;98012.94;5033935;28;20056;-69
2023/10/09 13:39:30;;;;;;;2.03;0.98;;;;;;;9.90;78.97;97999.47;5050671;28;20135;-66
2023/10/09 13:41:59;;;;;;;1.48;1.00;;;;;;;9.98;79.82;98014.41;5050963;28;20155;-66
2023/10/09 13:44:29;;;;;;;1.25;0.93;;;;;;;9.86;80.25;98016.81;5033304;28;20055;-66
2023/10/09 13:46:56;;;;;;;1.45;1.30;;;;;;;9.82;80.72;98018.22;5016788;28;20394;-66
2023/10/09 13:49:31;;;;;;;1.52;1.10;;;;;;;9.74;81.13;98014.88;5033348;28;20051;-67
2023/10/09 13:52:02;;;;;;;1.58;1.42;;;;;;;9.77;81.85;98015.31;5002070;28;20129;-67
2023/10/09 13:54:39;;;;;;;1.58;1.35;;;;;;;9.66;81.85;98029.06;5033436;28;20049;-67
2023/10/09 13:57:06;;;;;;;1.88;1.58;;;;;;;9.63;82.02;98029.47;5034431;28;20053;-67
2023/10/09 13:59:35;;;;;;;4.38;1.40;;;;;;;9.47;82.84;98029.72;5033067;28;20049;-67
2023/10/09 14:02:02;;;;;;;3.92;1.60;;;;;;;9.47;83.34;98034.22;5033334;28;20048;-66
2023/10/09 14:04:29;;;;;;;2.85;1.73;;;;;;;9.47;83.52;98032.34;5033016;28;20402;-66
2023/10/09 14:06:59;;;;;;;4.22;1.55;;;;;;;9.43;83.58;98031.13;5016073;28;20128;-66
2023/10/09 14:09:37;;;;;;;1.73;1.42;;;;;;;9.36;83.68;98043.50;5050602;28;20491;-67
2023/10/09 14:12:10;;;;;;;3.08;1.30;;;;;;;9.40;84.06;98044.75;5052940;28;20467;-67
2023/10/09 14:14:49;;;;;;;4.90;1.70;;;;;;;9.47;84.71;98058.84;5037155;28;20555;-67
2023/10/09 14:17:23;;;;;;;1.38;1.02;;;;;;;9.29;85.08;98061.13;5037094;28;20047;-67
2023/10/09 14:19:51;;;;;;;1.80;1.00;;;;;;;9.29;84.92;98060.31;5052949;28;20134;-69
2023/10/09 14:22:29;;;;;;;4.88;1.35;;;;;;;9.30;85.23;98065.41;5019687;28;20562;-68
2023/10/09 14:24:56;;;;;;;4.75;1.63;;;;;;;9.20;85.56;98072.03;5035820;28;20392;-69
2023/10/09 14:27:26;;;;;;;1.77;1.50;;;;;;;9.36;85.92;98067.34;5019380;28;20049;-68